Island Adventure — WDG9106 — position and weather

sailwx.info

Track history (hours):
 
Tides and Currents Weather Stations Pressure Air Temp Water Temp Dewpoint Dewpoint Depression Visibility Wind Speed Wind Dir Waves Ship Positions

Island Adventure

Owner: Superboat Inc, Ventura, CA. More information available from US FCC via Universal Licensing System and Coast Guard Vessel Documentation Center.

Last reported at 2017-Nov-23 16:28 UTC. Time now 2017-Nov-23 16:53 UTC.
Position N 34°15' W 119°16'.

Length 20 m; draft 2.4 m.

Type: Passenger vessel. MMSI: 366899260.

Date/timePositionNaut miles runAvg speedWind from/ knotsBaromVisibWave heightAir tempDewpointWater temp
2017-Nov-23 16:28N 34°15' W 119°16'0 0.0
2017-Nov-23 15:55N 34°15' W 119°16'0 0.0
2017-Nov-23 15:30N 34°15' W 119°16'0 0.0
2017-Nov-23 14:59N 34°15' W 119°16'0 0.0
2017-Nov-23 11:52N 34°15' W 119°16'0 0.0
2017-Nov-23 11:27N 34°15' W 119°16'0 0.0
2017-Nov-23 10:55N 34°15' W 119°16'0 0.0
2017-Nov-23 10:27N 34°15' W 119°16'0 0.0
2017-Nov-23 10:00N 34°15' W 119°16'0 0.0
2017-Nov-23 08:42N 34°15' W 119°16'0 0.0
2017-Nov-23 08:29N 34°15' W 119°16'0 0.0
2017-Nov-23 08:00N 34°15' W 119°16'0 0.0
2017-Nov-23 07:29N 34°15' W 119°16'0 0.0
2017-Nov-23 06:53N 34°15' W 119°16'0 0.0
2017-Nov-23 06:08N 34°15' W 119°16'0 0.0
2017-Nov-23 06:00N 34°15' W 119°16'0 0.0
2017-Nov-23 05:30N 34°15' W 119°16'0 0.0
2017-Nov-23 05:00N 34°15' W 119°16'0 0.0
2017-Nov-23 04:30N 34°15' W 119°16'0 0.0
2017-Nov-23 03:59N 34°15' W 119°16'0 0.0
2017-Nov-23 03:29N 34°15' W 119°16'0 0.0
2017-Nov-23 02:58N 34°15' W 119°16'0 0.0
2017-Nov-23 02:30N 34°15' W 119°16'0 0.0
2017-Nov-23 02:00N 34°15' W 119°16'0 0.0
2017-Nov-23 01:25N 34°15' W 119°16'0 0.0
2017-Nov-23 00:57N 34°15' W 119°16'1 2.4
2017-Nov-23 00:31N 34°14' W 119°17'1019.7
2017-Nov-23 00:00N 34°07' W 119°26'815.3
2017-Nov-22 23:31N 34°03' W 119°33'1 1.9
2017-Nov-22 23:00N 34°04' W 119°34'611.7
2017-Nov-22 22:30N 34°02' W 119°41'3 5.5
2017-Nov-22 22:00N 34°02' W 119°38'0 0.1
2017-Nov-22 21:30N 34°02' W 119°38'0 0.2
2017-Nov-22 21:01N 34°02' W 119°38'0 0.1
2017-Nov-22 20:31N 34°02' W 119°38'0 0.4
2017-Nov-22 19:59N 34°02' W 119°38'3 5.8
2017-Nov-22 19:30N 34°01' W 119°41'  
2017-Nov-20 00:30N 34°15' W 119°16'2 4.7
2017-Nov-20 00:00N 34°13' W 119°18'918.2
2017-Nov-19 23:30N 34°07' W 119°26'714.2
2017-Nov-19 23:00N 34°03' W 119°33'0 0.2
2017-Nov-19 22:30N 34°03' W 119°33'0 0.2
2017-Nov-19 22:00N 34°03' W 119°33'0 0.0
2017-Nov-19 21:29N 34°03' W 119°33'0 0.0
2017-Nov-19 20:58N 34°03' W 119°33'0 0.0
2017-Nov-19 20:30N 34°03' W 119°33'0 0.0
2017-Nov-19 20:00N 34°03' W 119°33'0 0.2
2017-Nov-19 19:30N 34°03' W 119°33'917.4
2017-Nov-19 19:00N 34°07' W 119°24'611.9
2017-Nov-19 18:29N 34°12' W 119°21'5 9.4
2017-Nov-19 18:00N 34°15' W 119°16'0 0.4
2017-Nov-19 17:28N 34°15' W 119°16'0 0.0
2017-Nov-19 16:59N 34°15' W 119°16'0 0.0
2017-Nov-19 16:30N 34°15' W 119°16'0 0.0
2017-Nov-19 15:52N 34°15' W 119°16'0 0.0
2017-Nov-19 15:28N 34°15' W 119°16'0 0.0
2017-Nov-19 14:58N 34°15' W 119°16'0 0.0
2017-Nov-19 14:30N 34°15' W 119°16'0 0.0
2017-Nov-19 13:58N 34°15' W 119°16'0 0.0
2017-Nov-19 13:29N 34°15' W 119°16'0 0.0
2017-Nov-19 12:58N 34°15' W 119°16'0 0.0
2017-Nov-19 12:30N 34°15' W 119°16'0 0.0
2017-Nov-19 12:00N 34°15' W 119°16'0 0.0
2017-Nov-19 11:24N 34°15' W 119°16'0 0.0
2017-Nov-19 10:57N 34°15' W 119°16'0 0.0
2017-Nov-19 10:30N 34°15' W 119°16'0 0.0
2017-Nov-19 10:00N 34°15' W 119°16'0 0.0
2017-Nov-19 09:29N 34°15' W 119°16'0 0.0
2017-Nov-19 09:00N 34°15' W 119°16'0 0.0
2017-Nov-19 08:29N 34°15' W 119°16'0 0.0
2017-Nov-19 08:00N 34°15' W 119°16'0 0.0
2017-Nov-19 07:29N 34°15' W 119°16'0 0.0
2017-Nov-19 06:58N 34°15' W 119°16'0 0.0
2017-Nov-19 06:30N 34°15' W 119°16'0 0.0
2017-Nov-19 06:00N 34°15' W 119°16'0 0.0
2017-Nov-19 05:30N 34°15' W 119°16'0 0.0
2017-Nov-19 05:00N 34°15' W 119°16'0 0.0
2017-Nov-19 04:30N 34°15' W 119°16'0 0.0
2017-Nov-19 04:00N 34°15' W 119°16'0 0.0
2017-Nov-19 03:27N 34°15' W 119°16'0 0.0
2017-Nov-19 03:00N 34°15' W 119°16'0 0.0
2017-Nov-19 02:28N 34°15' W 119°16'0 0.0
2017-Nov-19 01:57N 34°15' W 119°16'0 0.0
2017-Nov-19 01:21N 34°15' W 119°16'1 2.6
2017-Nov-19 01:00N 34°14' W 119°17'919.0
2017-Nov-19 00:30N 34°08' W 119°26'816.6
2017-Nov-19 00:00N 34°03' W 119°33'2 4.0
2017-Nov-18 23:30N 34°03' W 119°36'5 9.5
2017-Nov-18 22:59N 34°01' W 119°41'0 0.0
2017-Nov-18 22:30N 34°01' W 119°41'0 0.0
2017-Nov-18 22:00N 34°01' W 119°41'0 0.0
2017-Nov-18 21:30N 34°01' W 119°41'0 0.0
2017-Nov-18 21:00N 34°01' W 119°41'0 0.0
2017-Nov-18 20:29N 34°01' W 119°41'0 0.1
2017-Nov-18 20:00N 34°01' W 119°41'0 0.0
2017-Nov-18 19:31N 34°01' W 119°41'0 0.2
2017-Nov-18 19:00N 34°01' W 119°41'713.1
2017-Nov-18 18:30N 34°03' W 119°33'611.9
2017-Nov-18 17:59N 34°07' W 119°28'817.4
2017-Nov-18 17:30N 34°12' W 119°20'4 7.9
2017-Nov-18 16:59N 34°15' W 119°16'0 0.0
2017-Nov-18 16:28N 34°15' W 119°16'0 0.0
2017-Nov-18 15:59N 34°15' W 119°16'0 0.0
2017-Nov-18 15:30N 34°15' W 119°16'0 0.0
2017-Nov-18 15:01N 34°15' W 119°16'0 0.0
2017-Nov-18 14:30N 34°15' W 119°16'0 0.0
2017-Nov-18 14:00N 34°15' W 119°16'0 0.0
2017-Nov-18 13:30N 34°15' W 119°16'0 0.0
2017-Nov-18 13:01N 34°15' W 119°16'0 0.0
2017-Nov-18 12:30N 34°15' W 119°16'0 0.0
2017-Nov-18 12:00N 34°15' W 119°16'0 0.0
2017-Nov-18 11:30N 34°15' W 119°16'0 0.0
2017-Nov-18 11:00N 34°15' W 119°16'0 0.0
2017-Nov-18 10:31N 34°15' W 119°16'0 0.0
2017-Nov-18 10:01N 34°15' W 119°16'0 0.0
2017-Nov-18 09:30N 34°15' W 119°16'0 0.0
2017-Nov-18 09:01N 34°15' W 119°16'0 0.0
2017-Nov-18 08:30N 34°15' W 119°16'0 0.0
2017-Nov-18 08:00N 34°15' W 119°16'0 0.0
2017-Nov-18 07:30N 34°15' W 119°16'0 0.0
2017-Nov-18 07:00N 34°15' W 119°16'0 0.0
2017-Nov-18 06:31N 34°15' W 119°16'0 0.0
2017-Nov-18 06:00N 34°15' W 119°16'0 0.0
2017-Nov-18 05:29N 34°15' W 119°16'0 0.0
2017-Nov-18 05:01N 34°15' W 119°16'0 0.0
2017-Nov-18 04:30N 34°15' W 119°16'0 0.0
2017-Nov-18 04:00N 34°15' W 119°16'0 0.0
2017-Nov-18 03:31N 34°15' W 119°16'0 0.0
2017-Nov-18 02:58N 34°15' W 119°16'0 0.0
2017-Nov-18 02:30N 34°15' W 119°16'0 0.0
2017-Nov-18 02:00N 34°15' W 119°16'0 0.0
2017-Nov-18 01:31N 34°15' W 119°16'0 0.0
2017-Nov-18 01:00N 34°15' W 119°16'0 0.0
2017-Nov-18 00:30N 34°15' W 119°16'714.1
2017-Nov-18 00:00N 34°13' W 119°24'1019.9
2017-Nov-17 23:31N 34°10' W 119°35'917.1
2017-Nov-17 23:00N 34°07' W 119°45'612.1
2017-Nov-17 22:30N 34°04' W 119°52'1018.6
2017-Nov-17 22:00N 34°01' W 120°02'1 1.3
2017-Nov-17 21:30N 34°00' W 120°03'0 0.0
2017-Nov-17 21:00N 34°00' W 120°03'0 0.0
2017-Nov-17 20:30N 34°01' W 120°03'0 0.0
2017-Nov-17 20:00N 34°00' W 120°03'0 0.0
2017-Nov-17 19:30N 34°01' W 120°03'0 0.1
2017-Nov-17 18:58N 34°00' W 120°03'4 9.4
2017-Nov-17 18:30N 33°59' W 119°58'1518.4
2017-Nov-17 17:41N 33°57' W 119°40'818.3
2017-Nov-17 17:15N 34°01' W 119°31'418.4
2017-Nov-17 17:00N 34°04' W 119°28'918.5
2017-Nov-17 16:30N 34°12' W 119°20'5 9.8
2017-Nov-17 16:00N 34°15' W 119°16'0 0.0
2017-Nov-17 15:30N 34°15' W 119°16'0 0.0
2017-Nov-17 15:00N 34°15' W 119°16'0 0.0
2017-Nov-17 14:30N 34°15' W 119°16'0 0.0
2017-Nov-17 13:58N 34°15' W 119°16'0 0.0
2017-Nov-17 13:30N 34°15' W 119°16'0 0.0
2017-Nov-17 13:00N 34°15' W 119°16'0 0.0
2017-Nov-17 12:30N 34°15' W 119°16'0 0.0
2017-Nov-17 12:00N 34°15' W 119°16'0 0.0
2017-Nov-17 11:30N 34°15' W 119°16'0 0.0
2017-Nov-17 10:59N 34°15' W 119°16'0 0.0
2017-Nov-17 10:30N 34°15' W 119°16'0 0.0
2017-Nov-17 10:00N 34°15' W 119°16'0 0.0
2017-Nov-17 09:30N 34°15' W 119°16'0 0.0
2017-Nov-17 08:59N 34°15' W 119°16'0 0.0
2017-Nov-17 08:30N 34°15' W 119°16'0 0.0
2017-Nov-17 07:59N 34°15' W 119°16'0 0.0
2017-Nov-17 07:24N 34°15' W 119°16'0 0.0
2017-Nov-17 07:00N 34°15' W 119°16'0 0.0
2017-Nov-17 06:29N 34°15' W 119°16'0 0.0
2017-Nov-17 06:00N 34°15' W 119°16'0 0.0
2017-Nov-17 05:30N 34°15' W 119°16'0 0.0
2017-Nov-17 05:00N 34°15' W 119°16'0 0.0
2017-Nov-17 04:30N 34°15' W 119°16'0 0.0
2017-Nov-17 04:00N 34°15' W 119°16'0 0.0
2017-Nov-17 03:30N 34°15' W 119°16'0 0.0
2017-Nov-17 02:59N 34°15' W 119°16'0 0.0
2017-Nov-17 02:29N 34°15' W 119°16'0 0.0
2017-Nov-17 01:53N 34°15' W 119°16'0 0.0
2017-Nov-17 01:30N 34°15' W 119°16'0 0.0
2017-Nov-17 01:00N 34°15' W 119°16'3 6.6
2017-Nov-17 00:29N 34°13' W 119°19'1018.9
2017-Nov-16 23:57N 34°06' W 119°29'511.5
2017-Nov-16 23:31N 34°03' W 119°33'2 4.1
2017-Nov-16 23:00N 34°04' W 119°36'510.0
2017-Nov-16 22:30N 34°01' W 119°41'0 0.1
2017-Nov-16 22:00N 34°01' W 119°41'0 0.0
2017-Nov-16 21:30N 34°01' W 119°41'0 0.0
2017-Nov-16 21:00N 34°01' W 119°41'0 0.0
2017-Nov-16 20:30N 34°01' W 119°41'0 0.1
2017-Nov-16 20:00N 34°01' W 119°41'0 0.0
2017-Nov-16 19:30N 34°01' W 119°41'2 4.4
2017-Nov-16 18:59N 34°02' W 119°39'4 9.1
2017-Nov-16 18:30N 34°03' W 119°33'612.4
2017-Nov-16 18:00N 34°06' W 119°27'915.6
2017-Nov-16 17:26N 34°13' W 119°20'4 8.3
2017-Nov-16 16:59N 34°15' W 119°16'0 0.4
2017-Nov-16 16:30N 34°14' W 119°16'0 0.4
2017-Nov-16 16:00N 34°15' W 119°16'0 0.0
2017-Nov-16 15:26N 34°15' W 119°16'0 0.0
2017-Nov-16 15:00N 34°15' W 119°16'0 0.0
2017-Nov-16 14:30N 34°15' W 119°16'0 0.0
2017-Nov-16 14:00N 34°15' W 119°16'0 0.0
2017-Nov-16 13:25N 34°15' W 119°16'0 0.0
2017-Nov-16 13:00N 34°15' W 119°16'0 0.0
2017-Nov-16 12:30N 34°15' W 119°16'0 0.0
2017-Nov-16 12:00N 34°15' W 119°16'0 0.0
2017-Nov-16 11:30N 34°15' W 119°16'0 0.0
2017-Nov-16 10:58N 34°15' W 119°16'0 0.0
2017-Nov-16 10:27N 34°15' W 119°16'0 0.0
2017-Nov-16 10:00N 34°15' W 119°16'0 0.0
2017-Nov-16 09:28N 34°15' W 119°16'0 0.0
2017-Nov-16 08:58N 34°15' W 119°16'0 0.0
2017-Nov-16 08:28N 34°15' W 119°16'0 0.0
2017-Nov-16 08:00N 34°15' W 119°16'0 0.0
2017-Nov-16 07:29N 34°15' W 119°16'0 0.0
2017-Nov-16 06:57N 34°15' W 119°16'0 0.0
2017-Nov-16 06:27N 34°15' W 119°16'0 0.0
2017-Nov-16 06:00N 34°15' W 119°16'0 0.0
2017-Nov-16 05:30N 34°15' W 119°16'0 0.0
2017-Nov-16 05:00N 34°15' W 119°16'0 0.0
2017-Nov-16 04:30N 34°15' W 119°16'0 0.0
2017-Nov-16 04:00N 34°15' W 119°16'0 0.0
2017-Nov-16 03:30N 34°15' W 119°16'0 0.0
2017-Nov-16 03:00N 34°15' W 119°16'0 0.0
2017-Nov-16 02:25N 34°15' W 119°16'0 0.0
2017-Nov-16 02:00N 34°15' W 119°16'0 0.0
2017-Nov-16 01:30N 34°15' W 119°16'0 0.0
2017-Nov-16 01:00N 34°15' W 119°16'2 4.9
2017-Nov-16 00:30N 34°13' W 119°18'916.8
2017-Nov-15 23:58N 34°08' W 119°27'715.2
2017-Nov-15 23:30N 34°03' W 119°33'0 0.1
2017-Nov-15 23:00N 34°03' W 119°33'0 0.0
2017-Nov-15 22:31N 34°03' W 119°33'0 0.0
2017-Nov-15 21:58N 34°03' W 119°33'0 0.0
2017-Nov-15 21:30N 34°03' W 119°33'0 0.0
2017-Nov-15 20:58N 34°03' W 119°33'0 0.0
2017-Nov-15 20:28N 34°03' W 119°33'0 0.0
2017-Nov-15 19:58N 34°03' W 119°33'0 0.0
2017-Nov-15 19:30N 34°03' W 119°33'0 0.0
2017-Nov-15 18:59N 34°03' W 119°33'0 0.0
2017-Nov-15 18:30N 34°03' W 119°33'611.9
2017-Nov-15 17:59N 34°07' W 119°28'917.6
2017-Nov-15 17:29N 34°13' W 119°19'3 7.3
2017-Nov-15 17:00N 34°15' W 119°16'0 0.0
2017-Nov-15 16:29N 34°15' W 119°16'0 0.0
2017-Nov-15 15:59N 34°15' W 119°16'0 0.0
2017-Nov-15 15:27N 34°15' W 119°16'0 0.0
2017-Nov-15 14:53N 34°15' W 119°16'0 0.0
2017-Nov-15 14:29N 34°15' W 119°16'0 0.0
2017-Nov-15 14:00N 34°15' W 119°16'0 0.0
2017-Nov-15 13:30N 34°15' W 119°16'0 0.0
2017-Nov-15 12:58N 34°15' W 119°16'0 0.0
2017-Nov-15 12:29N 34°15' W 119°16'0 0.0
2017-Nov-15 12:00N 34°15' W 119°16'0 0.0
2017-Nov-15 11:28N 34°15' W 119°16'0 0.0
2017-Nov-15 11:00N 34°15' W 119°16'0 0.0
2017-Nov-15 10:30N 34°15' W 119°16'0 0.0
2017-Nov-15 10:00N 34°15' W 119°16'0 0.0
2017-Nov-15 09:30N 34°15' W 119°16'0 0.0
2017-Nov-15 08:58N 34°15' W 119°16'0 0.0
2017-Nov-15 08:29N 34°15' W 119°16'0 0.0
2017-Nov-15 08:00N 34°15' W 119°16'0 0.0
2017-Nov-15 07:30N 34°15' W 119°16'0 0.0
2017-Nov-15 06:59N 34°15' W 119°16'0 0.0
2017-Nov-15 06:30N 34°15' W 119°16'0 0.0
2017-Nov-15 06:00N 34°15' W 119°16'0 0.0
2017-Nov-15 05:29N 34°15' W 119°16'0 0.0
2017-Nov-15 04:59N 34°15' W 119°16'0 0.0
2017-Nov-15 04:28N 34°15' W 119°16'0 0.0
2017-Nov-15 03:59N 34°15' W 119°16'0 0.0
2017-Nov-15 03:15N 34°15' W 119°16'0 0.0
2017-Nov-15 03:00N 34°15' W 119°16'0 0.0
2017-Nov-15 02:29N 34°15' W 119°16'0 0.0
2017-Nov-15 01:58N 34°15' W 119°16'0 0.0
2017-Nov-15 01:30N 34°15' W 119°16'0 0.0
2017-Nov-15 00:55N 34°15' W 119°16'511.8
2017-Nov-15 00:30N 34°10' W 119°19'917.8
2017-Nov-15 00:00N 34°02' W 119°23'1 2.8
2017-Nov-14 23:30N 34°01' W 119°21'0 0.8
2017-Nov-14 23:00N 34°01' W 119°22'1 1.8
2017-Nov-14 22:30N 34°01' W 119°23'0 0.0
2017-Nov-14 21:59N 34°01' W 119°23'0 0.0
2017-Nov-14 21:30N 34°01' W 119°23'0 0.0
2017-Nov-14 21:00N 34°01' W 119°23'0 0.0
2017-Nov-14 20:29N 34°01' W 119°23'0 0.0
2017-Nov-14 20:00N 34°01' W 119°23'0 0.0
2017-Nov-14 19:30N 34°01' W 119°23'1 1.8
2017-Nov-14 19:00N 34°01' W 119°22'4 7.3
2017-Nov-14 18:30N 34°05' W 119°22'612.3
2017-Nov-14 18:00N 34°11' W 119°20'511.1
2017-Nov-14 17:30N 34°15' W 119°16'0 0.1
2017-Nov-14 16:58N 34°15' W 119°16'0 0.0
2017-Nov-14 16:29N 34°15' W 119°16'0 0.0
2017-Nov-14 16:00N 34°15' W 119°16'0 0.0
2017-Nov-14 15:30N 34°15' W 119°16'0 0.0
2017-Nov-14 15:00N 34°15' W 119°16'0 0.0
2017-Nov-14 14:30N 34°15' W 119°16'0 0.0
2017-Nov-14 14:00N 34°15' W 119°16'0 0.0
2017-Nov-14 13:29N 34°15' W 119°16'0 0.0
2017-Nov-14 13:00N 34°15' W 119°16'0 0.0
2017-Nov-14 12:30N 34°15' W 119°16'0 0.0
2017-Nov-14 11:57N 34°15' W 119°16'0 0.0
2017-Nov-14 11:29N 34°15' W 119°16'0 0.0
2017-Nov-14 11:00N 34°15' W 119°16'0 0.0
2017-Nov-14 10:28N 34°15' W 119°16'0 0.0
2017-Nov-14 10:00N 34°15' W 119°16'0 0.0
2017-Nov-14 09:30N 34°15' W 119°16'0 0.0
2017-Nov-14 09:00N 34°15' W 119°16'0 0.0
2017-Nov-14 08:30N 34°15' W 119°16'0 0.0
2017-Nov-14 08:00N 34°15' W 119°16'0 0.0
2017-Nov-14 07:30N 34°15' W 119°16'0 0.0
2017-Nov-14 07:00N 34°15' W 119°16'0 0.0
2017-Nov-14 06:30N 34°15' W 119°16'0 0.0
2017-Nov-14 05:58N 34°15' W 119°16'0 0.0
2017-Nov-14 05:30N 34°15' W 119°16'0 0.0
2017-Nov-14 05:00N 34°15' W 119°16'0 0.0
2017-Nov-14 04:29N 34°15' W 119°16'0 0.0
2017-Nov-14 03:59N 34°15' W 119°16'0 0.0
2017-Nov-14 03:29N 34°15' W 119°16'0 0.0
2017-Nov-14 03:00N 34°15' W 119°16'0 0.0
2017-Nov-14 02:30N 34°15' W 119°16'0 0.0
2017-Nov-14 01:57N 34°15' W 119°16'0 0.0
2017-Nov-14 01:30N 34°15' W 119°16'0 0.0
2017-Nov-14 01:00N 34°15' W 119°16'0 0.0
2017-Nov-14 00:29N 34°15' W 119°16'0 0.0
2017-Nov-13 23:58N 34°15' W 119°16'0 0.0
2017-Nov-13 23:23N 34°15' W 119°16'0 0.0
2017-Nov-13 22:55N 34°15' W 119°16'0 0.0
2017-Nov-13 22:29N 34°15' W 119°16'0 0.0
2017-Nov-13 22:00N 34°15' W 119°16'  
Track history (hours):
 
Tides and Currents Weather Stations Pressure Air Temp Water Temp Dewpoint Dewpoint Depression Visibility Wind Speed Wind Dir Waves Ship Positions

Island Adventure

Owner: Superboat Inc, Ventura, CA. More information available from US FCC via Universal Licensing System and Coast Guard Vessel Documentation Center.

Last reported at 2017-Nov-23 16:28 UTC. Time now 2017-Nov-23 16:53 UTC.
Position N 34°15' W 119°16'.

Length 20 m; draft 2.4 m.

Type: Passenger vessel. MMSI: 366899260.

Date/timePositionNaut miles runAvg speedWind from/ knotsBaromVisibWave heightAir tempDewpointWater temp
2017-Nov-23 16:28N 34°15' W 119°16'0 0.0
2017-Nov-23 15:55N 34°15' W 119°16'0 0.0
2017-Nov-23 15:30N 34°15' W 119°16'0 0.0
2017-Nov-23 14:59N 34°15' W 119°16'0 0.0
2017-Nov-23 11:52N 34°15' W 119°16'0 0.0
2017-Nov-23 11:27N 34°15' W 119°16'0 0.0
2017-Nov-23 10:55N 34°15' W 119°16'0 0.0
2017-Nov-23 10:27N 34°15' W 119°16'0 0.0
2017-Nov-23 10:00N 34°15' W 119°16'0 0.0
2017-Nov-23 08:42N 34°15' W 119°16'0 0.0
2017-Nov-23 08:29N 34°15' W 119°16'0 0.0
2017-Nov-23 08:00N 34°15' W 119°16'0 0.0
2017-Nov-23 07:29N 34°15' W 119°16'0 0.0
2017-Nov-23 06:53N 34°15' W 119°16'0 0.0
2017-Nov-23 06:08N 34°15' W 119°16'0 0.0
2017-Nov-23 06:00N 34°15' W 119°16'0 0.0
2017-Nov-23 05:30N 34°15' W 119°16'0 0.0
2017-Nov-23 05:00N 34°15' W 119°16'0 0.0
2017-Nov-23 04:30N 34°15' W 119°16'0 0.0
2017-Nov-23 03:59N 34°15' W 119°16'0 0.0
2017-Nov-23 03:29N 34°15' W 119°16'0 0.0
2017-Nov-23 02:58N 34°15' W 119°16'0 0.0
2017-Nov-23 02:30N 34°15' W 119°16'0 0.0
2017-Nov-23 02:00N 34°15' W 119°16'0 0.0
2017-Nov-23 01:25N 34°15' W 119°16'0 0.0
2017-Nov-23 00:57N 34°15' W 119°16'1 2.4
2017-Nov-23 00:31N 34°14' W 119°17'1019.7
2017-Nov-23 00:00N 34°07' W 119°26'815.3
2017-Nov-22 23:31N 34°03' W 119°33'1 1.9
2017-Nov-22 23:00N 34°04' W 119°34'611.7
2017-Nov-22 22:30N 34°02' W 119°41'3 5.5
2017-Nov-22 22:00N 34°02' W 119°38'0 0.1
2017-Nov-22 21:30N 34°02' W 119°38'0 0.2
2017-Nov-22 21:01N 34°02' W 119°38'0 0.1
2017-Nov-22 20:31N 34°02' W 119°38'0 0.4
2017-Nov-22 19:59N 34°02' W 119°38'3 5.8
2017-Nov-22 19:30N 34°01' W 119°41'  
2017-Nov-20 00:30N 34°15' W 119°16'2 4.7
2017-Nov-20 00:00N 34°13' W 119°18'918.2
2017-Nov-19 23:30N 34°07' W 119°26'714.2
2017-Nov-19 23:00N 34°03' W 119°33'0 0.2
2017-Nov-19 22:30N 34°03' W 119°33'0 0.2
2017-Nov-19 22:00N 34°03' W 119°33'0 0.0
2017-Nov-19 21:29N 34°03' W 119°33'0 0.0
2017-Nov-19 20:58N 34°03' W 119°33'0 0.0
2017-Nov-19 20:30N 34°03' W 119°33'0 0.0
2017-Nov-19 20:00N 34°03' W 119°33'0 0.2
2017-Nov-19 19:30N 34°03' W 119°33'917.4
2017-Nov-19 19:00N 34°07' W 119°24'611.9
2017-Nov-19 18:29N 34°12' W 119°21'5 9.4
2017-Nov-19 18:00N 34°15' W 119°16'0 0.4
2017-Nov-19 17:28N 34°15' W 119°16'0 0.0
2017-Nov-19 16:59N 34°15' W 119°16'0 0.0
2017-Nov-19 16:30N 34°15' W 119°16'0 0.0
2017-Nov-19 15:52N 34°15' W 119°16'0 0.0
2017-Nov-19 15:28N 34°15' W 119°16'0 0.0
2017-Nov-19 14:58N 34°15' W 119°16'0 0.0
2017-Nov-19 14:30N 34°15' W 119°16'0 0.0
2017-Nov-19 13:58N 34°15' W 119°16'0 0.0
2017-Nov-19 13:29N 34°15' W 119°16'0 0.0
2017-Nov-19 12:58N 34°15' W 119°16'0 0.0
2017-Nov-19 12:30N 34°15' W 119°16'0 0.0
2017-Nov-19 12:00N 34°15' W 119°16'0 0.0
2017-Nov-19 11:24N 34°15' W 119°16'0 0.0
2017-Nov-19 10:57N 34°15' W 119°16'0 0.0
2017-Nov-19 10:30N 34°15' W 119°16'0 0.0
2017-Nov-19 10:00N 34°15' W 119°16'0 0.0
2017-Nov-19 09:29N 34°15' W 119°16'0 0.0
2017-Nov-19 09:00N 34°15' W 119°16'0 0.0
2017-Nov-19 08:29N 34°15' W 119°16'0 0.0
2017-Nov-19 08:00N 34°15' W 119°16'0 0.0
2017-Nov-19 07:29N 34°15' W 119°16'0 0.0
2017-Nov-19 06:58N 34°15' W 119°16'0 0.0
2017-Nov-19 06:30N 34°15' W 119°16'0 0.0
2017-Nov-19 06:00N 34°15' W 119°16'0 0.0
2017-Nov-19 05:30N 34°15' W 119°16'0 0.0
2017-Nov-19 05:00N 34°15' W 119°16'0 0.0
2017-Nov-19 04:30N 34°15' W 119°16'0 0.0
2017-Nov-19 04:00N 34°15' W 119°16'0 0.0
2017-Nov-19 03:27N 34°15' W 119°16'0 0.0
2017-Nov-19 03:00N 34°15' W 119°16'0 0.0
2017-Nov-19 02:28N 34°15' W 119°16'0 0.0
2017-Nov-19 01:57N 34°15' W 119°16'0 0.0
2017-Nov-19 01:21N 34°15' W 119°16'1 2.6
2017-Nov-19 01:00N 34°14' W 119°17'919.0
2017-Nov-19 00:30N 34°08' W 119°26'816.6
2017-Nov-19 00:00N 34°03' W 119°33'2 4.0
2017-Nov-18 23:30N 34°03' W 119°36'5 9.5
2017-Nov-18 22:59N 34°01' W 119°41'0 0.0
2017-Nov-18 22:30N 34°01' W 119°41'0 0.0
2017-Nov-18 22:00N 34°01' W 119°41'0 0.0
2017-Nov-18 21:30N 34°01' W 119°41'0 0.0
2017-Nov-18 21:00N 34°01' W 119°41'0 0.0
2017-Nov-18 20:29N 34°01' W 119°41'0 0.1
2017-Nov-18 20:00N 34°01' W 119°41'0 0.0
2017-Nov-18 19:31N 34°01' W 119°41'0 0.2
2017-Nov-18 19:00N 34°01' W 119°41'713.1
2017-Nov-18 18:30N 34°03' W 119°33'611.9
2017-Nov-18 17:59N 34°07' W 119°28'817.4
2017-Nov-18 17:30N 34°12' W 119°20'4 7.9
2017-Nov-18 16:59N 34°15' W 119°16'0 0.0
2017-Nov-18 16:28N 34°15' W 119°16'0 0.0
2017-Nov-18 15:59N 34°15' W 119°16'0 0.0
2017-Nov-18 15:30N 34°15' W 119°16'0 0.0
2017-Nov-18 15:01N 34°15' W 119°16'0 0.0
2017-Nov-18 14:30N 34°15' W 119°16'0 0.0
2017-Nov-18 14:00N 34°15' W 119°16'0 0.0
2017-Nov-18 13:30N 34°15' W 119°16'0 0.0
2017-Nov-18 13:01N 34°15' W 119°16'0 0.0
2017-Nov-18 12:30N 34°15' W 119°16'0 0.0
2017-Nov-18 12:00N 34°15' W 119°16'0 0.0
2017-Nov-18 11:30N 34°15' W 119°16'0 0.0
2017-Nov-18 11:00N 34°15' W 119°16'0 0.0
2017-Nov-18 10:31N 34°15' W 119°16'0 0.0
2017-Nov-18 10:01N 34°15' W 119°16'0 0.0
2017-Nov-18 09:30N 34°15' W 119°16'0 0.0
2017-Nov-18 09:01N 34°15' W 119°16'0 0.0
2017-Nov-18 08:30N 34°15' W 119°16'0 0.0
2017-Nov-18 08:00N 34°15' W 119°16'0 0.0
2017-Nov-18 07:30N 34°15' W 119°16'0 0.0
2017-Nov-18 07:00N 34°15' W 119°16'0 0.0
2017-Nov-18 06:31N 34°15' W 119°16'0 0.0
2017-Nov-18 06:00N 34°15' W 119°16'0 0.0
2017-Nov-18 05:29N 34°15' W 119°16'0 0.0
2017-Nov-18 05:01N 34°15' W 119°16'0 0.0
2017-Nov-18 04:30N 34°15' W 119°16'0 0.0
2017-Nov-18 04:00N 34°15' W 119°16'0 0.0
2017-Nov-18 03:31N 34°15' W 119°16'0 0.0
2017-Nov-18 02:58N 34°15' W 119°16'0 0.0
2017-Nov-18 02:30N 34°15' W 119°16'0 0.0
2017-Nov-18 02:00N 34°15' W 119°16'0 0.0
2017-Nov-18 01:31N 34°15' W 119°16'0 0.0
2017-Nov-18 01:00N 34°15' W 119°16'0 0.0
2017-Nov-18 00:30N 34°15' W 119°16'714.1
2017-Nov-18 00:00N 34°13' W 119°24'1019.9
2017-Nov-17 23:31N 34°10' W 119°35'917.1
2017-Nov-17 23:00N 34°07' W 119°45'612.1
2017-Nov-17 22:30N 34°04' W 119°52'1018.6
2017-Nov-17 22:00N 34°01' W 120°02'1 1.3
2017-Nov-17 21:30N 34°00' W 120°03'0 0.0
2017-Nov-17 21:00N 34°00' W 120°03'0 0.0
2017-Nov-17 20:30N 34°01' W 120°03'0 0.0
2017-Nov-17 20:00N 34°00' W 120°03'0 0.0
2017-Nov-17 19:30N 34°01' W 120°03'0 0.1
2017-Nov-17 18:58N 34°00' W 120°03'4 9.4
2017-Nov-17 18:30N 33°59' W 119°58'1518.4
2017-Nov-17 17:41N 33°57' W 119°40'818.3
2017-Nov-17 17:15N 34°01' W 119°31'418.4
2017-Nov-17 17:00N 34°04' W 119°28'918.5
2017-Nov-17 16:30N 34°12' W 119°20'5 9.8
2017-Nov-17 16:00N 34°15' W 119°16'0 0.0
2017-Nov-17 15:30N 34°15' W 119°16'0 0.0
2017-Nov-17 15:00N 34°15' W 119°16'0 0.0
2017-Nov-17 14:30N 34°15' W 119°16'0 0.0
2017-Nov-17 13:58N 34°15' W 119°16'0 0.0
2017-Nov-17 13:30N 34°15' W 119°16'0 0.0
2017-Nov-17 13:00N 34°15' W 119°16'0 0.0
2017-Nov-17 12:30N 34°15' W 119°16'0 0.0
2017-Nov-17 12:00N 34°15' W 119°16'0 0.0
2017-Nov-17 11:30N 34°15' W 119°16'0 0.0
2017-Nov-17 10:59N 34°15' W 119°16'0 0.0
2017-Nov-17 10:30N 34°15' W 119°16'0 0.0
2017-Nov-17 10:00N 34°15' W 119°16'0 0.0
2017-Nov-17 09:30N 34°15' W 119°16'0 0.0
2017-Nov-17 08:59N 34°15' W 119°16'0 0.0
2017-Nov-17 08:30N 34°15' W 119°16'0 0.0
2017-Nov-17 07:59N 34°15' W 119°16'0 0.0
2017-Nov-17 07:24N 34°15' W 119°16'0 0.0
2017-Nov-17 07:00N 34°15' W 119°16'0 0.0
2017-Nov-17 06:29N 34°15' W 119°16'0 0.0
2017-Nov-17 06:00N 34°15' W 119°16'0 0.0
2017-Nov-17 05:30N 34°15' W 119°16'0 0.0
2017-Nov-17 05:00N 34°15' W 119°16'0 0.0
2017-Nov-17 04:30N 34°15' W 119°16'0 0.0
2017-Nov-17 04:00N 34°15' W 119°16'0 0.0
2017-Nov-17 03:30N 34°15' W 119°16'0 0.0
2017-Nov-17 02:59N 34°15' W 119°16'0 0.0
2017-Nov-17 02:29N 34°15' W 119°16'0 0.0
2017-Nov-17 01:53N 34°15' W 119°16'0 0.0
2017-Nov-17 01:30N 34°15' W 119°16'0 0.0
2017-Nov-17 01:00N 34°15' W 119°16'3 6.6
2017-Nov-17 00:29N 34°13' W 119°19'1018.9
2017-Nov-16 23:57N 34°06' W 119°29'511.5
2017-Nov-16 23:31N 34°03' W 119°33'2 4.1
2017-Nov-16 23:00N 34°04' W 119°36'510.0
2017-Nov-16 22:30N 34°01' W 119°41'0 0.1
2017-Nov-16 22:00N 34°01' W 119°41'0 0.0
2017-Nov-16 21:30N 34°01' W 119°41'0 0.0
2017-Nov-16 21:00N 34°01' W 119°41'0 0.0
2017-Nov-16 20:30N 34°01' W 119°41'0 0.1
2017-Nov-16 20:00N 34°01' W 119°41'0 0.0
2017-Nov-16 19:30N 34°01' W 119°41'2 4.4
2017-Nov-16 18:59N 34°02' W 119°39'4 9.1
2017-Nov-16 18:30N 34°03' W 119°33'612.4
2017-Nov-16 18:00N 34°06' W 119°27'915.6
2017-Nov-16 17:26N 34°13' W 119°20'4 8.3
2017-Nov-16 16:59N 34°15' W 119°16'0 0.4
2017-Nov-16 16:30N 34°14' W 119°16'0 0.4
2017-Nov-16 16:00N 34°15' W 119°16'0 0.0
2017-Nov-16 15:26N 34°15' W 119°16'0 0.0
2017-Nov-16 15:00N 34°15' W 119°16'0 0.0
2017-Nov-16 14:30N 34°15' W 119°16'0 0.0
2017-Nov-16 14:00N 34°15' W 119°16'0 0.0
2017-Nov-16 13:25N 34°15' W 119°16'0 0.0
2017-Nov-16 13:00N 34°15' W 119°16'0 0.0
2017-Nov-16 12:30N 34°15' W 119°16'0 0.0
2017-Nov-16 12:00N 34°15' W 119°16'0 0.0
2017-Nov-16 11:30N 34°15' W 119°16'0 0.0
2017-Nov-16 10:58N 34°15' W 119°16'0 0.0
2017-Nov-16 10:27N 34°15' W 119°16'0 0.0
2017-Nov-16 10:00N 34°15' W 119°16'0 0.0
2017-Nov-16 09:28N 34°15' W 119°16'0 0.0
2017-Nov-16 08:58N 34°15' W 119°16'0 0.0
2017-Nov-16 08:28N 34°15' W 119°16'0 0.0
2017-Nov-16 08:00N 34°15' W 119°16'0 0.0
2017-Nov-16 07:29N 34°15' W 119°16'0 0.0
2017-Nov-16 06:57N 34°15' W 119°16'0 0.0
2017-Nov-16 06:27N 34°15' W 119°16'0 0.0
2017-Nov-16 06:00N 34°15' W 119°16'0 0.0
2017-Nov-16 05:30N 34°15' W 119°16'0 0.0
2017-Nov-16 05:00N 34°15' W 119°16'0 0.0
2017-Nov-16 04:30N 34°15' W 119°16'0 0.0
2017-Nov-16 04:00N 34°15' W 119°16'0 0.0
2017-Nov-16 03:30N 34°15' W 119°16'0 0.0
2017-Nov-16 03:00N 34°15' W 119°16'0 0.0
2017-Nov-16 02:25N 34°15' W 119°16'0 0.0
2017-Nov-16 02:00N 34°15' W 119°16'0 0.0
2017-Nov-16 01:30N 34°15' W 119°16'0 0.0
2017-Nov-16 01:00N 34°15' W 119°16'2 4.9
2017-Nov-16 00:30N 34°13' W 119°18'916.8
2017-Nov-15 23:58N 34°08' W 119°27'715.2
2017-Nov-15 23:30N 34°03' W 119°33'0 0.1
2017-Nov-15 23:00N 34°03' W 119°33'0 0.0
2017-Nov-15 22:31N 34°03' W 119°33'0 0.0
2017-Nov-15 21:58N 34°03' W 119°33'0 0.0
2017-Nov-15 21:30N 34°03' W 119°33'0 0.0
2017-Nov-15 20:58N 34°03' W 119°33'0 0.0
2017-Nov-15 20:28N 34°03' W 119°33'0 0.0
2017-Nov-15 19:58N 34°03' W 119°33'0 0.0
2017-Nov-15 19:30N 34°03' W 119°33'0 0.0
2017-Nov-15 18:59N 34°03' W 119°33'0 0.0
2017-Nov-15 18:30N 34°03' W 119°33'611.9
2017-Nov-15 17:59N 34°07' W 119°28'917.6
2017-Nov-15 17:29N 34°13' W 119°19'3 7.3
2017-Nov-15 17:00N 34°15' W 119°16'0 0.0
2017-Nov-15 16:29N 34°15' W 119°16'0 0.0
2017-Nov-15 15:59N 34°15' W 119°16'0 0.0
2017-Nov-15 15:27N 34°15' W 119°16'0 0.0
2017-Nov-15 14:53N 34°15' W 119°16'0 0.0
2017-Nov-15 14:29N 34°15' W 119°16'0 0.0
2017-Nov-15 14:00N 34°15' W 119°16'0 0.0
2017-Nov-15 13:30N 34°15' W 119°16'0 0.0
2017-Nov-15 12:58N 34°15' W 119°16'0 0.0
2017-Nov-15 12:29N 34°15' W 119°16'0 0.0
2017-Nov-15 12:00N 34°15' W 119°16'0 0.0
2017-Nov-15 11:28N 34°15' W 119°16'0 0.0
2017-Nov-15 11:00N 34°15' W 119°16'0 0.0
2017-Nov-15 10:30N 34°15' W 119°16'0 0.0
2017-Nov-15 10:00N 34°15' W 119°16'0 0.0
2017-Nov-15 09:30N 34°15' W 119°16'0 0.0
2017-Nov-15 08:58N 34°15' W 119°16'0 0.0
2017-Nov-15 08:29N 34°15' W 119°16'0 0.0
2017-Nov-15 08:00N 34°15' W 119°16'0 0.0
2017-Nov-15 07:30N 34°15' W 119°16'0 0.0
2017-Nov-15 06:59N 34°15' W 119°16'0 0.0
2017-Nov-15 06:30N 34°15' W 119°16'0 0.0
2017-Nov-15 06:00N 34°15' W 119°16'0 0.0
2017-Nov-15 05:29N 34°15' W 119°16'0 0.0
2017-Nov-15 04:59N 34°15' W 119°16'0 0.0
2017-Nov-15 04:28N 34°15' W 119°16'0 0.0
2017-Nov-15 03:59N 34°15' W 119°16'0 0.0
2017-Nov-15 03:15N 34°15' W 119°16'0 0.0
2017-Nov-15 03:00N 34°15' W 119°16'0 0.0
2017-Nov-15 02:29N 34°15' W 119°16'0 0.0
2017-Nov-15 01:58N 34°15' W 119°16'0 0.0
2017-Nov-15 01:30N 34°15' W 119°16'0 0.0
2017-Nov-15 00:55N 34°15' W 119°16'511.8
2017-Nov-15 00:30N 34°10' W 119°19'917.8
2017-Nov-15 00:00N 34°02' W 119°23'1 2.8
2017-Nov-14 23:30N 34°01' W 119°21'0 0.8
2017-Nov-14 23:00N 34°01' W 119°22'1 1.8
2017-Nov-14 22:30N 34°01' W 119°23'0 0.0
2017-Nov-14 21:59N 34°01' W 119°23'0 0.0
2017-Nov-14 21:30N 34°01' W 119°23'0 0.0
2017-Nov-14 21:00N 34°01' W 119°23'0 0.0
2017-Nov-14 20:29N 34°01' W 119°23'0 0.0
2017-Nov-14 20:00N 34°01' W 119°23'0 0.0
2017-Nov-14 19:30N 34°01' W 119°23'1 1.8
2017-Nov-14 19:00N 34°01' W 119°22'4 7.3
2017-Nov-14 18:30N 34°05' W 119°22'612.3
2017-Nov-14 18:00N 34°11' W 119°20'511.1
2017-Nov-14 17:30N 34°15' W 119°16'0 0.1
2017-Nov-14 16:58N 34°15' W 119°16'0 0.0
2017-Nov-14 16:29N 34°15' W 119°16'0 0.0
2017-Nov-14 16:00N 34°15' W 119°16'0 0.0
2017-Nov-14 15:30N 34°15' W 119°16'0 0.0
2017-Nov-14 15:00N 34°15' W 119°16'0 0.0
2017-Nov-14 14:30N 34°15' W 119°16'0 0.0
2017-Nov-14 14:00N 34°15' W 119°16'0 0.0
2017-Nov-14 13:29N 34°15' W 119°16'0 0.0
2017-Nov-14 13:00N 34°15' W 119°16'0 0.0
2017-Nov-14 12:30N 34°15' W 119°16'0 0.0
2017-Nov-14 11:57N 34°15' W 119°16'0 0.0
2017-Nov-14 11:29N 34°15' W 119°16'0 0.0
2017-Nov-14 11:00N 34°15' W 119°16'0 0.0
2017-Nov-14 10:28N 34°15' W 119°16'0 0.0
2017-Nov-14 10:00N 34°15' W 119°16'0 0.0
2017-Nov-14 09:30N 34°15' W 119°16'0 0.0
2017-Nov-14 09:00N 34°15' W 119°16'0 0.0
2017-Nov-14 08:30N 34°15' W 119°16'0 0.0
2017-Nov-14 08:00N 34°15' W 119°16'0 0.0
2017-Nov-14 07:30N 34°15' W 119°16'0 0.0
2017-Nov-14 07:00N 34°15' W 119°16'0 0.0
2017-Nov-14 06:30N 34°15' W 119°16'0 0.0
2017-Nov-14 05:58N 34°15' W 119°16'0 0.0
2017-Nov-14 05:30N 34°15' W 119°16'0 0.0
2017-Nov-14 05:00N 34°15' W 119°16'0 0.0
2017-Nov-14 04:29N 34°15' W 119°16'0 0.0
2017-Nov-14 03:59N 34°15' W 119°16'0 0.0
2017-Nov-14 03:29N 34°15' W 119°16'0 0.0
2017-Nov-14 03:00N 34°15' W 119°16'0 0.0
2017-Nov-14 02:30N 34°15' W 119°16'0 0.0
2017-Nov-14 01:57N 34°15' W 119°16'0 0.0
2017-Nov-14 01:30N 34°15' W 119°16'0 0.0
2017-Nov-14 01:00N 34°15' W 119°16'0 0.0
2017-Nov-14 00:29N 34°15' W 119°16'0 0.0
2017-Nov-13 23:58N 34°15' W 119°16'0 0.0
2017-Nov-13 23:23N 34°15' W 119°16'0 0.0
2017-Nov-13 22:55N 34°15' W 119°16'0 0.0
2017-Nov-13 22:29N 34°15' W 119°16'0 0.0
2017-Nov-13 22:00N 34°15' W 119°16'  

Dump ship's entire track history